sensor_id;sensor_type;location;lat;lon;timestamp;pressure;altitude;pressure_sealevel;temperature;humidity
21956;BME280;11142;49.930;8.606;2024-01-07T00:01:20;99567.09;;;5.54;100.00
21956;BME280;11142;49.930;8.606;2024-01-07T00:03:48;99565.41;;;5.70;100.00
21956;BME280;11142;49.930;8.606;2024-01-07T00:06:16;99566.63;;;5.63;100.00
21956;BME280;11142;49.930;8.606;2024-01-07T00:08:49;99577.28;;;5.72;100.00
21956;BME280;11142;49.930;8.606;2024-01-07T00:11:18;99592.78;;;5.71;100.00
21956;BME280;11142;49.930;8.606;2024-01-07T00:13:47;99582.59;;;5.69;100.00
21956;BME280;11142;49.930;8.606;2024-01-07T00:16:15;99602.13;;;5.56;100.00
21956;BME280;11142;49.930;8.606;2024-01-07T00:18:43;99591.47;;;5.64;100.00
21956;BME280;11142;49.930;8.606;2024-01-07T00:21:12;99590.69;;;5.62;100.00
21956;BME280;11142;49.930;8.606;2024-01-07T00:23:40;99595.84;;;5.62;100.00
21956;BME280;11142;49.930;8.606;2024-01-07T00:26:09;99591.16;;;5.70;100.00
21956;BME280;11142;49.930;8.606;2024-01-07T00:28:39;99607.94;;;5.77;100.00
21956;BME280;11142;49.930;8.606;2024-01-07T00:31:11;99605.59;;;5.72;100.00
21956;BME280;11142;49.930;8.606;2024-01-07T00:33:39;99598.25;;;5.65;100.00
21956;BME280;11142;49.930;8.606;2024-01-07T00:36:08;99611.84;;;6.01;100.00
21956;BME280;11142;49.930;8.606;2024-01-07T00:38:37;99618.00;;;5.99;100.00
21956;BME280;11142;49.930;8.606;2024-01-07T00:41:05;99613.00;;;5.96;100.00
21956;BME280;11142;49.930;8.606;2024-01-07T00:43:34;99616.78;;;6.21;100.00
21956;BME280;11142;49.930;8.606;2024-01-07T00:46:04;99628.03;;;6.03;100.00
21956;BME280;11142;49.930;8.606;2024-01-07T00:48:33;99624.03;;;5.80;100.00
21956;BME280;11142;49.930;8.606;2024-01-07T00:51:03;99626.88;;;5.76;100.00
21956;BME280;11142;49.930;8.606;2024-01-07T00:53:32;99627.97;;;6.05;100.00
21956;BME280;11142;49.930;8.606;2024-01-07T00:56:00;99632.75;;;5.78;100.00
21956;BME280;11142;49.930;8.606;2024-01-07T00:58:29;99623.84;;;5.68;100.00
21956;BME280;11142;49.930;8.606;2024-01-07T01:00:57;99619.84;;;5.62;100.00
21956;BME280;11142;49.930;8.606;2024-01-07T01:03:32;99621.31;;;5.51;100.00
21956;BME280;11142;49.930;8.606;2024-01-07T01:06:00;99632.66;;;5.47;100.00
21956;BME280;11142;49.930;8.606;2024-01-07T01:08:32;99630.53;;;5.55;100.00
21956;BME280;11142;49.930;8.606;2024-01-07T01:11:02;99621.88;;;5.56;100.00
21956;BME280;11142;49.930;8.606;2024-01-07T01:13:31;99633.38;;;5.66;100.00
21956;BME280;11142;49.930;8.606;2024-01-07T01:15:59;99636.13;;;5.63;100.00
21956;BME280;11142;49.930;8.606;2024-01-07T01:18:27;99647.31;;;5.62;100.00
21956;BME280;11142;49.930;8.606;2024-01-07T01:20:58;99636.94;;;5.63;100.00
21956;BME280;11142;49.930;8.606;2024-01-07T01:23:26;99640.66;;;5.41;100.00
21956;BME280;11142;49.930;8.606;2024-01-07T01:25:56;99641.41;;;5.43;100.00
21956;BME280;11142;49.930;8.606;2024-01-07T01:28:24;99642.16;;;5.79;100.00
21956;BME280;11142;49.930;8.606;2024-01-07T01:30:53;99653.53;;;5.58;100.00
21956;BME280;11142;49.930;8.606;2024-01-07T01:33:21;99648.56;;;5.55;100.00
21956;BME280;11142;49.930;8.606;2024-01-07T01:35:52;99654.44;;;5.57;100.00
21956;BME280;11142;49.930;8.606;2024-01-07T01:38:23;99652.25;;;5.49;100.00
21956;BME280;11142;49.930;8.606;2024-01-07T01:40:52;99658.09;;;5.35;100.00
21956;BME280;11142;49.930;8.606;2024-01-07T01:43:24;99638.63;;;5.13;100.00
21956;BME280;11142;49.930;8.606;2024-01-07T01:45:52;99660.44;;;5.04;100.00
21956;BME280;11142;49.930;8.606;2024-01-07T01:48:22;99643.22;;;5.23;100.00
21956;BME280;11142;49.930;8.606;2024-01-07T01:50:53;99647.97;;;5.14;100.00
21956;BME280;11142;49.930;8.606;2024-01-07T01:53:26;99657.75;;;5.07;100.00
21956;BME280;11142;49.930;8.606;2024-01-07T01:55:57;99654.44;;;5.22;100.00
21956;BME280;11142;49.930;8.606;2024-01-07T01:58:29;99655.41;;;5.37;100.00
21956;BME280;11142;49.930;8.606;2024-01-07T02:00:57;99658.53;;;5.44;100.00
21956;BME280;11142;49.930;8.606;2024-01-07T02:03:26;99671.53;;;5.75;100.00
21956;BME280;11142;49.930;8.606;2024-01-07T02:05:55;99677.03;;;5.84;100.00
21956;BME280;11142;49.930;8.606;2024-01-07T02:08:26;99680.41;;;5.69;100.00
21956;BME280;11142;49.930;8.606;2024-01-07T02:10:54;99673.13;;;5.43;100.00
21956;BME280;11142;49.930;8.606;2024-01-07T02:13:22;99671.16;;;5.31;100.00
21956;BME280;11142;49.930;8.606;2024-01-07T02:15:50;99673.97;;;5.44;100.00
21956;BME280;11142;49.930;8.606;2024-01-07T02:18:19;99677.38;;;5.44;100.00
21956;BME280;11142;49.930;8.606;2024-01-07T02:20:47;99671.38;;;5.44;100.00
21956;BME280;11142;49.930;8.606;2024-01-07T02:23:17;99668.59;;;5.48;100.00
21956;BME280;11142;49.930;8.606;2024-01-07T02:25:47;99685.31;;;5.40;100.00
21956;BME280;11142;49.930;8.606;2024-01-07T02:28:15;99687.28;;;5.34;100.00
21956;BME280;11142;49.930;8.606;2024-01-07T02:30:43;99679.03;;;5.28;100.00
21956;BME280;11142;49.930;8.606;2024-01-07T02:33:12;99669.09;;;5.20;100.00
21956;BME280;11142;49.930;8.606;2024-01-07T02:35:40;99674.00;;;5.08;100.00
21956;BME280;11142;49.930;8.606;2024-01-07T02:38:09;99671.94;;;4.97;100.00
21956;BME280;11142;49.930;8.606;2024-01-07T02:40:37;99656.47;;;5.16;100.00
21956;BME280;11142;49.930;8.606;2024-01-07T02:43:06;99665.03;;;5.33;100.00
21956;BME280;11142;49.930;8.606;2024-01-07T02:45:34;99660.94;;;5.12;100.00
21956;BME280;11142;49.930;8.606;2024-01-07T02:48:02;99663.41;;;4.97;100.00
21956;BME280;11142;49.930;8.606;2024-01-07T02:50:32;99660.56;;;4.84;100.00
21956;BME280;11142;49.930;8.606;2024-01-07T02:53:00;99643.97;;;4.91;100.00
21956;BME280;11142;49.930;8.606;2024-01-07T02:55:28;99642.19;;;4.92;100.00
21956;BME280;11142;49.930;8.606;2024-01-07T02:57:56;99642.09;;;4.76;100.00
21956;BME280;11142;49.930;8.606;2024-01-07T03:00:26;99633.09;;;4.67;100.00
21956;BME280;11142;49.930;8.606;2024-01-07T03:02:54;99635.66;;;4.67;100.00
21956;BME280;11142;49.930;8.606;2024-01-07T03:05:24;99625.72;;;4.60;100.00
21956;BME280;11142;49.930;8.606;2024-01-07T03:07:52;99626.69;;;4.57;100.00
21956;BME280;11142;49.930;8.606;2024-01-07T03:10:20;99624.00;;;4.60;100.00
21956;BME280;11142;49.930;8.606;2024-01-07T03:12:48;99621.00;;;4.51;100.00
21956;BME280;11142;49.930;8.606;2024-01-07T03:15:16;99616.25;;;4.43;100.00
21956;BME280;11142;49.930;8.606;2024-01-07T03:17:45;99607.88;;;4.57;100.00
21956;BME280;11142;49.930;8.606;2024-01-07T03:20:14;99611.25;;;4.40;100.00
21956;BME280;11142;49.930;8.606;2024-01-07T03:22:42;99602.16;;;4.33;100.00
21956;BME280;11142;49.930;8.606;2024-01-07T03:25:10;99599.34;;;4.38;100.00
21956;BME280;11142;49.930;8.606;2024-01-07T03:27:38;99594.22;;;4.38;100.00
21956;BME280;11142;49.930;8.606;2024-01-07T03:30:06;99597.28;;;4.46;100.00
21956;BME280;11142;49.930;8.606;2024-01-07T03:32:39;99592.28;;;4.43;100.00
21956;BME280;11142;49.930;8.606;2024-01-07T03:35:08;99585.13;;;4.49;100.00
21956;BME280;11142;49.930;8.606;2024-01-07T03:37:37;99590.00;;;4.37;100.00
21956;BME280;11142;49.930;8.606;2024-01-07T03:40:10;99583.59;;;4.45;100.00
21956;BME280;11142;49.930;8.606;2024-01-07T03:42:38;99577.56;;;4.46;100.00
21956;BME280;11142;49.930;8.606;2024-01-07T03:45:07;99582.31;;;4.37;100.00
21956;BME280;11142;49.930;8.606;2024-01-07T03:47:35;99581.38;;;4.38;100.00
21956;BME280;11142;49.930;8.606;2024-01-07T03:50:03;99579.78;;;4.35;100.00
21956;BME280;11142;49.930;8.606;2024-01-07T03:52:35;99579.44;;;4.43;100.00
21956;BME280;11142;49.930;8.606;2024-01-07T03:55:04;99581.13;;;4.44;100.00
21956;BME280;11142;49.930;8.606;2024-01-07T03:57:32;99571.00;;;4.58;100.00
21956;BME280;11142;49.930;8.606;2024-01-07T04:00:00;99584.91;;;4.54;100.00
21956;BME280;11142;49.930;8.606;2024-01-07T04:02:30;99591.84;;;4.52;100.00
21956;BME280;11142;49.930;8.606;2024-01-07T04:04:58;99589.00;;;4.58;100.00
21956;BME280;11142;49.930;8.606;2024-01-07T04:07:26;99591.91;;;4.69;100.00
21956;BME280;11142;49.930;8.606;2024-01-07T04:09:56;99596.94;;;4.53;100.00
21956;BME280;11142;49.930;8.606;2024-01-07T04:12:24;99594.44;;;4.52;100.00
21956;BME280;11142;49.930;8.606;2024-01-07T04:14:52;99596.78;;;4.38;100.00
21956;BME280;11142;49.930;8.606;2024-01-07T04:17:20;99588.41;;;4.53;100.00
21956;BME280;11142;49.930;8.606;2024-01-07T04:19:48;99604.38;;;4.41;100.00
21956;BME280;11142;49.930;8.606;2024-01-07T04:22:16;99594.53;;;4.50;100.00
21956;BME280;11142;49.930;8.606;2024-01-07T04:24:44;99595.13;;;4.55;100.00
21956;BME280;11142;49.930;8.606;2024-01-07T04:27:13;99606.34;;;4.71;100.00
21956;BME280;11142;49.930;8.606;2024-01-07T04:29:41;99615.78;;;4.71;100.00
21956;BME280;11142;49.930;8.606;2024-01-07T04:32:09;99624.63;;;4.65;100.00
21956;BME280;11142;49.930;8.606;2024-01-07T04:34:37;99632.59;;;4.78;100.00
21956;BME280;11142;49.930;8.606;2024-01-07T04:37:06;99633.06;;;4.86;100.00
21956;BME280;11142;49.930;8.606;2024-01-07T04:39:34;99646.69;;;5.05;100.00
21956;BME280;11142;49.930;8.606;2024-01-07T04:42:03;99655.19;;;5.24;100.00
21956;BME280;11142;49.930;8.606;2024-01-07T04:44:32;99667.25;;;5.05;100.00
21956;BME280;11142;49.930;8.606;2024-01-07T04:47:00;99673.56;;;4.81;100.00
21956;BME280;11142;49.930;8.606;2024-01-07T04:49:28;99668.16;;;4.68;100.00
21956;BME280;11142;49.930;8.606;2024-01-07T04:51:56;99664.81;;;4.66;100.00
21956;BME280;11142;49.930;8.606;2024-01-07T04:54:24;99668.78;;;4.73;100.00
21956;BME280;11142;49.930;8.606;2024-01-07T04:56:52;99665.16;;;4.77;100.00
21956;BME280;11142;49.930;8.606;2024-01-07T04:59:23;99666.16;;;4.56;100.00
21956;BME280;11142;49.930;8.606;2024-01-07T05:01:52;99660.47;;;4.50;100.00
21956;BME280;11142;49.930;8.606;2024-01-07T05:04:20;99661.03;;;4.56;100.00
21956;BME280;11142;49.930;8.606;2024-01-07T05:06:48;99665.91;;;4.79;100.00
21956;BME280;11142;49.930;8.606;2024-01-07T05:09:17;99672.94;;;4.76;100.00
21956;BME280;11142;49.930;8.606;2024-01-07T05:11:45;99680.03;;;4.71;100.00
21956;BME280;11142;49.930;8.606;2024-01-07T05:14:13;99678.88;;;4.95;100.00
21956;BME280;11142;49.930;8.606;2024-01-07T05:16:41;99696.69;;;5.00;100.00
21956;BME280;11142;49.930;8.606;2024-01-07T05:19:10;99709.31;;;5.04;100.00
21956;BME280;11142;49.930;8.606;2024-01-07T05:21:39;99704.81;;;4.91;100.00
21956;BME280;11142;49.930;8.606;2024-01-07T05:24:07;99701.53;;;5.06;100.00
21956;BME280;11142;49.930;8.606;2024-01-07T05:26:38;99709.72;;;4.95;100.00
21956;BME280;11142;49.930;8.606;2024-01-07T05:29:06;99714.03;;;5.13;100.00
21956;BME280;11142;49.930;8.606;2024-01-07T05:31:34;99730.25;;;4.97;100.00
21956;BME280;11142;49.930;8.606;2024-01-07T05:34:03;99725.47;;;5.25;100.00
21956;BME280;11142;49.930;8.606;2024-01-07T05:36:32;99726.59;;;5.19;100.00
21956;BME280;11142;49.930;8.606;2024-01-07T05:39:03;99746.25;;;5.20;100.00
21956;BME280;11142;49.930;8.606;2024-01-07T05:41:31;99752.50;;;5.33;100.00
21956;BME280;11142;49.930;8.606;2024-01-07T05:43:59;99752.34;;;5.01;100.00
21956;BME280;11142;49.930;8.606;2024-01-07T05:46:30;99753.66;;;5.09;100.00
21956;BME280;11142;49.930;8.606;2024-01-07T05:48:58;99758.28;;;5.01;100.00
21956;BME280;11142;49.930;8.606;2024-01-07T05:51:26;99758.38;;;5.00;100.00
21956;BME280;11142;49.930;8.606;2024-01-07T05:53:55;99757.63;;;4.98;100.00
21956;BME280;11142;49.930;8.606;2024-01-07T05:56:23;99762.00;;;4.96;100.00
21956;BME280;11142;49.930;8.606;2024-01-07T05:58:51;99765.06;;;5.04;100.00
21956;BME280;11142;49.930;8.606;2024-01-07T06:01:20;99772.13;;;4.99;100.00
21956;BME280;11142;49.930;8.606;2024-01-07T06:03:48;99774.44;;;4.86;100.00
21956;BME280;11142;49.930;8.606;2024-01-07T06:06:17;99769.41;;;4.83;100.00
21956;BME280;11142;49.930;8.606;2024-01-07T06:08:45;99769.66;;;4.97;100.00
21956;BME280;11142;49.930;8.606;2024-01-07T06:11:15;99795.63;;;4.91;100.00
21956;BME280;11142;49.930;8.606;2024-01-07T06:13:46;99795.50;;;4.94;100.00
21956;BME280;11142;49.930;8.606;2024-01-07T06:16:14;99807.66;;;4.91;100.00
21956;BME280;11142;49.930;8.606;2024-01-07T06:18:43;99808.69;;;5.05;100.00
21956;BME280;11142;49.930;8.606;2024-01-07T06:21:11;99805.91;;;4.91;100.00
21956;BME280;11142;49.930;8.606;2024-01-07T06:23:39;99823.13;;;4.89;100.00
21956;BME280;11142;49.930;8.606;2024-01-07T06:26:06;99828.19;;;4.72;100.00
21956;BME280;11142;49.930;8.606;2024-01-07T06:28:36;99826.06;;;4.81;100.00
21956;BME280;11142;49.930;8.606;2024-01-07T06:31:04;99827.94;;;4.78;100.00
21956;BME280;11142;49.930;8.606;2024-01-07T06:33:33;99833.69;;;5.02;100.00
21956;BME280;11142;49.930;8.606;2024-01-07T06:36:01;99845.56;;;4.86;100.00
21956;BME280;11142;49.930;8.606;2024-01-07T06:38:29;99854.50;;;4.77;100.00
21956;BME280;11142;49.930;8.606;2024-01-07T06:40:57;99844.94;;;4.80;100.00
21956;BME280;11142;49.930;8.606;2024-01-07T06:43:30;99853.47;;;4.62;100.00
21956;BME280;11142;49.930;8.606;2024-01-07T06:46:00;99864.22;;;4.70;100.00
21956;BME280;11142;49.930;8.606;2024-01-07T06:48:28;99865.94;;;4.70;100.00
21956;BME280;11142;49.930;8.606;2024-01-07T06:50:57;99864.94;;;4.74;100.00
21956;BME280;11142;49.930;8.606;2024-01-07T06:53:25;99868.47;;;4.71;100.00
21956;BME280;11142;49.930;8.606;2024-01-07T06:55:53;99869.81;;;4.60;100.00
21956;BME280;11142;49.930;8.606;2024-01-07T06:58:21;99881.97;;;4.56;100.00
21956;BME280;11142;49.930;8.606;2024-01-07T07:00:49;99876.13;;;4.53;100.00
21956;BME280;11142;49.930;8.606;2024-01-07T07:03:19;99881.91;;;4.58;100.00
21956;BME280;11142;49.930;8.606;2024-01-07T07:05:47;99876.22;;;4.70;100.00
21956;BME280;11142;49.930;8.606;2024-01-07T07:08:16;99885.22;;;4.60;100.00
21956;BME280;11142;49.930;8.606;2024-01-07T07:10:44;99884.72;;;4.52;100.00
21956;BME280;11142;49.930;8.606;2024-01-07T07:13:12;99887.81;;;4.40;100.00
21956;BME280;11142;49.930;8.606;2024-01-07T07:15:41;99898.34;;;4.54;100.00
21956;BME280;11142;49.930;8.606;2024-01-07T07:18:09;99912.94;;;4.53;100.00
21956;BME280;11142;49.930;8.606;2024-01-07T07:20:38;99907.69;;;4.35;100.00
21956;BME280;11142;49.930;8.606;2024-01-07T07:23:06;99907.06;;;4.29;100.00
21956;BME280;11142;49.930;8.606;2024-01-07T07:25:34;99908.16;;;4.24;100.00
21956;BME280;11142;49.930;8.606;2024-01-07T07:28:02;99908.75;;;4.31;100.00
21956;BME280;11142;49.930;8.606;2024-01-07T07:30:30;99905.38;;;4.28;100.00
21956;BME280;11142;49.930;8.606;2024-01-07T07:32:59;99909.75;;;4.26;100.00
21956;BME280;11142;49.930;8.606;2024-01-07T07:35:27;99922.72;;;4.23;100.00
21956;BME280;11142;49.930;8.606;2024-01-07T07:37:58;99926.06;;;4.25;100.00
21956;BME280;11142;49.930;8.606;2024-01-07T07:40:26;99935.72;;;4.19;100.00
21956;BME280;11142;49.930;8.606;2024-01-07T07:42:54;99950.00;;;4.26;100.00
21956;BME280;11142;49.930;8.606;2024-01-07T07:45:23;99958.50;;;4.28;100.00
21956;BME280;11142;49.930;8.606;2024-01-07T07:47:51;99965.78;;;4.17;100.00
21956;BME280;11142;49.930;8.606;2024-01-07T07:50:19;99974.81;;;4.27;100.00
21956;BME280;11142;49.930;8.606;2024-01-07T07:52:49;99993.06;;;4.19;100.00
21956;BME280;11142;49.930;8.606;2024-01-07T07:55:19;99986.19;;;4.20;100.00
21956;BME280;11142;49.930;8.606;2024-01-07T07:57:48;99993.78;;;4.23;100.00
21956;BME280;11142;49.930;8.606;2024-01-07T08:00:19;99995.22;;;4.08;100.00
21956;BME280;11142;49.930;8.606;2024-01-07T08:02:48;99997.78;;;4.08;100.00
21956;BME280;11142;49.930;8.606;2024-01-07T08:05:16;100010.75;;;4.05;100.00
21956;BME280;11142;49.930;8.606;2024-01-07T08:07:45;100027.75;;;4.08;100.00
21956;BME280;11142;49.930;8.606;2024-01-07T08:10:13;100020.09;;;4.06;100.00
21956;BME280;11142;49.930;8.606;2024-01-07T08:12:43;100036.94;;;3.92;100.00
21956;BME280;11142;49.930;8.606;2024-01-07T08:15:11;100044.56;;;3.93;100.00
21956;BME280;11142;49.930;8.606;2024-01-07T08:17:39;100043.88;;;3.90;100.00
21956;BME280;11142;49.930;8.606;2024-01-07T08:20:09;100053.16;;;3.92;100.00
21956;BME280;11142;49.930;8.606;2024-01-07T08:22:37;100041.34;;;3.88;100.00
21956;BME280;11142;49.930;8.606;2024-01-07T08:25:05;100076.59;;;3.83;100.00
21956;BME280;11142;49.930;8.606;2024-01-07T08:27:36;100070.03;;;3.99;100.00
21956;BME280;11142;49.930;8.606;2024-01-07T08:30:07;100082.06;;;3.97;100.00
21956;BME280;11142;49.930;8.606;2024-01-07T08:32:35;100065.22;;;3.90;100.00
21956;BME280;11142;49.930;8.606;2024-01-07T08:35:04;100079.50;;;3.74;100.00
21956;BME280;11142;49.930;8.606;2024-01-07T08:37:32;100072.28;;;3.60;100.00
21956;BME280;11142;49.930;8.606;2024-01-07T08:40:00;100086.69;;;3.64;100.00
21956;BME280;11142;49.930;8.606;2024-01-07T08:42:28;100088.53;;;3.84;100.00
21956;BME280;11142;49.930;8.606;2024-01-07T08:44:57;100100.25;;;3.91;100.00
21956;BME280;11142;49.930;8.606;2024-01-07T08:47:29;100094.16;;;3.94;100.00
21956;BME280;11142;49.930;8.606;2024-01-07T08:50:08;100101.81;;;3.95;100.00
21956;BME280;11142;49.930;8.606;2024-01-07T08:52:39;100098.53;;;3.92;100.00
21956;BME280;11142;49.930;8.606;2024-01-07T08:55:08;100119.50;;;3.80;100.00
21956;BME280;11142;49.930;8.606;2024-01-07T08:57:37;100119.94;;;3.67;100.00
21956;BME280;11142;49.930;8.606;2024-01-07T09:00:08;100140.16;;;3.77;100.00
21956;BME280;11142;49.930;8.606;2024-01-07T09:02:37;100118.66;;;3.79;100.00
21956;BME280;11142;49.930;8.606;2024-01-07T09:05:10;100125.59;;;3.77;100.00
21956;BME280;11142;49.930;8.606;2024-01-07T09:07:39;100125.69;;;3.97;100.00
21956;BME280;11142;49.930;8.606;2024-01-07T09:10:07;100125.31;;;3.85;100.00
21956;BME280;11142;49.930;8.606;2024-01-07T09:12:38;100133.31;;;3.75;100.00
21956;BME280;11142;49.930;8.606;2024-01-07T09:15:08;100156.59;;;3.71;100.00
21956;BME280;11142;49.930;8.606;2024-01-07T09:17:38;100138.97;;;3.85;100.00
21956;BME280;11142;49.930;8.606;2024-01-07T09:20:08;100149.25;;;3.85;100.00
21956;BME280;11142;49.930;8.606;2024-01-07T09:22:36;100162.84;;;4.12;100.00
21956;BME280;11142;49.930;8.606;2024-01-07T09:25:06;100170.66;;;4.09;100.00
21956;BME280;11142;49.930;8.606;2024-01-07T09:27:34;100166.69;;;4.23;100.00
21956;BME280;11142;49.930;8.606;2024-01-07T09:30:11;100181.06;;;4.04;100.00
21956;BME280;11142;49.930;8.606;2024-01-07T09:32:45;100201.72;;;3.77;100.00
21956;BME280;11142;49.930;8.606;2024-01-07T09:35:13;100167.53;;;3.76;100.00
21956;BME280;11142;49.930;8.606;2024-01-07T09:37:42;100186.69;;;3.66;100.00
21956;BME280;11142;49.930;8.606;2024-01-07T09:40:11;100178.09;;;3.67;100.00
21956;BME280;11142;49.930;8.606;2024-01-07T09:42:40;100188.59;;;3.61;100.00
21956;BME280;11142;49.930;8.606;2024-01-07T09:45:12;100198.13;;;3.56;100.00
21956;BME280;11142;49.930;8.606;2024-01-07T09:47:41;100207.72;;;3.51;100.00
21956;BME280;11142;49.930;8.606;2024-01-07T09:50:12;100202.69;;;3.74;100.00
21956;BME280;11142;49.930;8.606;2024-01-07T09:52:43;100193.13;;;3.78;100.00
21956;BME280;11142;49.930;8.606;2024-01-07T09:55:19;100198.53;;;3.95;100.00
21956;BME280;11142;49.930;8.606;2024-01-07T09:57:50;100204.25;;;4.26;100.00
21956;BME280;11142;49.930;8.606;2024-01-07T10:00:18;100201.56;;;4.06;100.00
21956;BME280;11142;49.930;8.606;2024-01-07T10:02:46;100208.16;;;4.13;100.00
21956;BME280;11142;49.930;8.606;2024-01-07T10:05:15;100217.16;;;4.24;100.00
21956;BME280;11142;49.930;8.606;2024-01-07T10:07:44;100216.53;;;3.93;100.00
21956;BME280;11142;49.930;8.606;2024-01-07T10:10:15;100222.94;;;4.31;100.00
21956;BME280;11142;49.930;8.606;2024-01-07T10:12:44;100218.75;;;4.04;100.00
21956;BME280;11142;49.930;8.606;2024-01-07T10:15:14;100221.19;;;3.84;100.00
21956;BME280;11142;49.930;8.606;2024-01-07T10:17:42;100220.25;;;4.09;100.00
21956;BME280;11142;49.930;8.606;2024-01-07T10:20:13;100219.56;;;4.06;100.00
21956;BME280;11142;49.930;8.606;2024-01-07T10:22:46;100217.34;;;3.95;100.00
21956;BME280;11142;49.930;8.606;2024-01-07T10:25:15;100223.09;;;4.02;100.00
21956;BME280;11142;49.930;8.606;2024-01-07T10:27:43;100223.94;;;4.02;100.00
21956;BME280;11142;49.930;8.606;2024-01-07T10:30:12;100225.34;;;4.11;100.00
21956;BME280;11142;49.930;8.606;2024-01-07T10:32:42;100227.63;;;4.43;100.00
21956;BME280;11142;49.930;8.606;2024-01-07T10:35:13;100237.25;;;4.83;100.00
21956;BME280;11142;49.930;8.606;2024-01-07T10:37:44;100227.66;;;4.65;100.00
21956;BME280;11142;49.930;8.606;2024-01-07T10:40:14;100246.34;;;4.92;100.00
21956;BME280;11142;49.930;8.606;2024-01-07T10:42:43;100231.41;;;4.56;100.00
21956;BME280;11142;49.930;8.606;2024-01-07T10:45:12;100236.22;;;4.42;100.00
21956;BME280;11142;49.930;8.606;2024-01-07T10:47:43;100234.75;;;4.58;100.00
21956;BME280;11142;49.930;8.606;2024-01-07T10:50:16;100231.53;;;4.05;100.00
21956;BME280;11142;49.930;8.606;2024-01-07T10:52:50;100219.19;;;4.40;100.00
21956;BME280;11142;49.930;8.606;2024-01-07T10:55:21;100224.75;;;4.51;100.00
21956;BME280;11142;49.930;8.606;2024-01-07T10:57:53;100228.78;;;4.58;100.00
21956;BME280;11142;49.930;8.606;2024-01-07T11:00:23;100233.34;;;4.73;100.00
21956;BME280;11142;49.930;8.606;2024-01-07T11:02:59;100235.44;;;5.08;100.00
21956;BME280;11142;49.930;8.606;2024-01-07T11:05:33;100230.00;;;4.71;100.00
21956;BME280;11142;49.930;8.606;2024-01-07T11:08:07;100232.63;;;4.69;100.00
21956;BME280;11142;49.930;8.606;2024-01-07T11:10:43;100236.78;;;4.50;100.00
21956;BME280;11142;49.930;8.606;2024-01-07T11:13:32;100231.75;;;3.99;100.00
21956;BME280;11142;49.930;8.606;2024-01-07T11:16:01;100227.03;;;4.35;100.00
21956;BME280;11142;49.930;8.606;2024-01-07T11:18:31;100228.69;;;4.13;100.00
21956;BME280;11142;49.930;8.606;2024-01-07T11:21:02;100230.69;;;4.05;100.00
21956;BME280;11142;49.930;8.606;2024-01-07T11:23:33;100226.53;;;4.25;100.00
21956;BME280;11142;49.930;8.606;2024-01-07T11:26:04;100238.47;;;4.26;100.00
21956;BME280;11142;49.930;8.606;2024-01-07T11:28:45;100215.13;;;4.09;100.00
21956;BME280;11142;49.930;8.606;2024-01-07T11:31:14;100250.34;;;4.06;100.00
21956;BME280;11142;49.930;8.606;2024-01-07T11:33:45;100249.75;;;3.98;100.00
21956;BME280;11142;49.930;8.606;2024-01-07T11:36:15;100241.53;;;3.88;100.00
21956;BME280;11142;49.930;8.606;2024-01-07T11:38:48;100248.47;;;3.86;100.00
21956;BME280;11142;49.930;8.606;2024-01-07T11:41:21;100248.75;;;3.77;100.00
21956;BME280;11142;49.930;8.606;2024-01-07T11:43:56;100249.72;;;3.99;100.00
21956;BME280;11142;49.930;8.606;2024-01-07T11:46:32;100242.19;;;4.43;100.00
21956;BME280;11142;49.930;8.606;2024-01-07T11:49:00;100241.69;;;4.08;100.00
21956;BME280;11142;49.930;8.606;2024-01-07T11:51:31;100256.31;;;4.06;100.00
21956;BME280;11142;49.930;8.606;2024-01-07T11:54:01;100256.75;;;3.68;100.00
21956;BME280;11142;49.930;8.606;2024-01-07T11:56:29;100265.69;;;3.83;100.00
21956;BME280;11142;49.930;8.606;2024-01-07T11:58:58;100264.00;;;3.82;100.00
21956;BME280;11142;49.930;8.606;2024-01-07T12:01:27;100260.03;;;3.71;100.00
21956;BME280;11142;49.930;8.606;2024-01-07T12:03:55;100265.22;;;3.96;100.00
21956;BME280;11142;49.930;8.606;2024-01-07T12:06:24;100268.66;;;3.70;100.00
21956;BME280;11142;49.930;8.606;2024-01-07T12:08:52;100262.41;;;3.78;100.00
21956;BME280;11142;49.930;8.606;2024-01-07T12:11:22;100279.84;;;3.68;100.00
21956;BME280;11142;49.930;8.606;2024-01-07T12:13:51;100259.13;;;3.74;100.00
21956;BME280;11142;49.930;8.606;2024-01-07T12:16:20;100273.22;;;3.87;100.00
21956;BME280;11142;49.930;8.606;2024-01-07T12:18:51;100255.94;;;3.67;100.00
21956;BME280;11142;49.930;8.606;2024-01-07T12:21:20;100270.13;;;3.51;100.00
21956;BME280;11142;49.930;8.606;2024-01-07T12:23:50;100275.69;;;3.38;100.00
21956;BME280;11142;49.930;8.606;2024-01-07T12:26:19;100270.66;;;3.35;100.00
21956;BME280;11142;49.930;8.606;2024-01-07T12:28:56;100265.72;;;3.81;100.00
21956;BME280;11142;49.930;8.606;2024-01-07T12:31:26;100267.72;;;3.98;100.00
21956;BME280;11142;49.930;8.606;2024-01-07T12:33:56;100272.38;;;3.34;100.00
21956;BME280;11142;49.930;8.606;2024-01-07T12:36:24;100260.53;;;3.58;100.00
21956;BME280;11142;49.930;8.606;2024-01-07T12:38:53;100268.53;;;4.24;100.00
21956;BME280;11142;49.930;8.606;2024-01-07T12:41:23;100280.78;;;4.16;100.00
21956;BME280;11142;49.930;8.606;2024-01-07T12:43:52;100273.47;;;3.80;100.00
21956;BME280;11142;49.930;8.606;2024-01-07T12:46:21;100281.34;;;3.49;100.00
21956;BME280;11142;49.930;8.606;2024-01-07T12:48:49;100275.63;;;3.67;100.00
21956;BME280;11142;49.930;8.606;2024-01-07T12:51:17;100267.19;;;3.62;100.00
21956;BME280;11142;49.930;8.606;2024-01-07T12:53:49;100283.25;;;3.42;100.00
21956;BME280;11142;49.930;8.606;2024-01-07T12:56:17;100270.94;;;3.78;100.00
21956;BME280;11142;49.930;8.606;2024-01-07T12:58:46;100293.50;;;3.68;100.00
21956;BME280;11142;49.930;8.606;2024-01-07T13:01:16;100291.25;;;3.86;100.00
21956;BME280;11142;49.930;8.606;2024-01-07T13:03:44;100289.13;;;3.98;100.00
21956;BME280;11142;49.930;8.606;2024-01-07T13:06:12;100305.78;;;4.11;100.00